sensor_id;sensor_type;location;lat;lon;timestamp;P1;durP1;ratioP1;P2;durP2;ratioP2
45033;SDS011;30771;47.988;-4.186;2024-03-17T00:01:10;23.58;;;6.80;;
45033;SDS011;30771;47.988;-4.186;2024-03-17T00:03:35;24.05;;;6.18;;
45033;SDS011;30771;47.988;-4.186;2024-03-17T00:06:01;18.65;;;5.75;;
45033;SDS011;30771;47.988;-4.186;2024-03-17T00:08:27;22.58;;;5.82;;
45033;SDS011;30771;47.988;-4.186;2024-03-17T00:10:53;19.83;;;6.18;;
45033;SDS011;30771;47.988;-4.186;2024-03-17T00:13:23;17.48;;;5.80;;
45033;SDS011;30771;47.988;-4.186;2024-03-17T00:15:49;19.58;;;6.35;;
45033;SDS011;30771;47.988;-4.186;2024-03-17T00:18:16;15.30;;;5.45;;
45033;SDS011;30771;47.988;-4.186;2024-03-17T00:20:42;13.13;;;5.07;;
45033;SDS011;30771;47.988;-4.186;2024-03-17T00:23:08;18.80;;;5.75;;
45033;SDS011;30771;47.988;-4.186;2024-03-17T00:25:37;20.23;;;6.18;;
45033;SDS011;30771;47.988;-4.186;2024-03-17T00:28:04;18.08;;;5.97;;
45033;SDS011;30771;47.988;-4.186;2024-03-17T00:30:30;15.52;;;6.00;;
45033;SDS011;30771;47.988;-4.186;2024-03-17T00:32:56;17.23;;;6.28;;
45033;SDS011;30771;47.988;-4.186;2024-03-17T00:35:23;20.17;;;6.95;;
45033;SDS011;30771;47.988;-4.186;2024-03-17T00:37:49;18.20;;;6.45;;
45033;SDS011;30771;47.988;-4.186;2024-03-17T00:40:18;18.00;;;6.05;;
45033;SDS011;30771;47.988;-4.186;2024-03-17T00:42:43;19.67;;;6.53;;
45033;SDS011;30771;47.988;-4.186;2024-03-17T00:45:12;25.02;;;6.70;;
45033;SDS011;30771;47.988;-4.186;2024-03-17T00:47:38;19.08;;;5.85;;
45033;SDS011;30771;47.988;-4.186;2024-03-17T00:50:05;16.35;;;5.72;;
45033;SDS011;30771;47.988;-4.186;2024-03-17T00:52:34;17.13;;;5.30;;
45033;SDS011;30771;47.988;-4.186;2024-03-17T00:55:00;16.63;;;5.20;;
45033;SDS011;30771;47.988;-4.186;2024-03-17T00:57:26;16.75;;;4.85;;
45033;SDS011;30771;47.988;-4.186;2024-03-17T00:59:51;14.52;;;5.22;;
45033;SDS011;30771;47.988;-4.186;2024-03-17T01:02:18;24.15;;;5.57;;
45033;SDS011;30771;47.988;-4.186;2024-03-17T01:04:44;20.75;;;5.43;;
45033;SDS011;30771;47.988;-4.186;2024-03-17T01:07:10;24.33;;;5.28;;
45033;SDS011;30771;47.988;-4.186;2024-03-17T01:09:37;17.77;;;4.38;;
45033;SDS011;30771;47.988;-4.186;2024-03-17T01:12:03;27.50;;;5.70;;
45033;SDS011;30771;47.988;-4.186;2024-03-17T01:14:29;14.80;;;5.00;;
45033;SDS011;30771;47.988;-4.186;2024-03-17T01:16:55;14.13;;;4.47;;
45033;SDS011;30771;47.988;-4.186;2024-03-17T01:19:22;14.13;;;4.18;;
45033;SDS011;30771;47.988;-4.186;2024-03-17T01:21:49;15.23;;;3.92;;
45033;SDS011;30771;47.988;-4.186;2024-03-17T01:24:14;15.20;;;3.70;;
45033;SDS011;30771;47.988;-4.186;2024-03-17T01:26:42;15.45;;;4.63;;
45033;SDS011;30771;47.988;-4.186;2024-03-17T01:29:08;12.32;;;3.55;;
45033;SDS011;30771;47.988;-4.186;2024-03-17T01:31:34;16.35;;;3.92;;
45033;SDS011;30771;47.988;-4.186;2024-03-17T01:34:00;15.82;;;4.07;;
45033;SDS011;30771;47.988;-4.186;2024-03-17T01:36:26;16.52;;;4.25;;
45033;SDS011;30771;47.988;-4.186;2024-03-17T01:38:52;15.95;;;4.80;;
45033;SDS011;30771;47.988;-4.186;2024-03-17T01:41:18;27.23;;;5.07;;
45033;SDS011;30771;47.988;-4.186;2024-03-17T01:43:44;17.75;;;4.40;;
45033;SDS011;30771;47.988;-4.186;2024-03-17T01:46:11;15.73;;;4.88;;
45033;SDS011;30771;47.988;-4.186;2024-03-17T01:48:42;14.10;;;4.10;;
45033;SDS011;30771;47.988;-4.186;2024-03-17T01:51:08;11.32;;;3.90;;
45033;SDS011;30771;47.988;-4.186;2024-03-17T01:53:40;15.07;;;3.63;;
45033;SDS011;30771;47.988;-4.186;2024-03-17T01:56:08;11.88;;;3.25;;
45033;SDS011;30771;47.988;-4.186;2024-03-17T01:58:36;9.68;;;2.80;;
45033;SDS011;30771;47.988;-4.186;2024-03-17T02:01:02;9.38;;;3.00;;
45033;SDS011;30771;47.988;-4.186;2024-03-17T02:03:29;8.43;;;3.22;;
45033;SDS011;30771;47.988;-4.186;2024-03-17T02:05:56;7.63;;;2.97;;
45033;SDS011;30771;47.988;-4.186;2024-03-17T02:08:22;9.55;;;3.55;;
45033;SDS011;30771;47.988;-4.186;2024-03-17T02:10:52;10.00;;;3.05;;
45033;SDS011;30771;47.988;-4.186;2024-03-17T02:13:21;10.10;;;3.28;;
45033;SDS011;30771;47.988;-4.186;2024-03-17T02:15:47;10.30;;;3.10;;
45033;SDS011;30771;47.988;-4.186;2024-03-17T02:18:13;11.60;;;3.33;;
45033;SDS011;30771;47.988;-4.186;2024-03-17T02:20:39;13.73;;;3.60;;
45033;SDS011;30771;47.988;-4.186;2024-03-17T02:23:20;13.32;;;3.75;;
45033;SDS011;30771;47.988;-4.186;2024-03-17T02:25:46;15.30;;;3.65;;
45033;SDS011;30771;47.988;-4.186;2024-03-17T02:28:14;11.27;;;4.18;;
45033;SDS011;30771;47.988;-4.186;2024-03-17T02:30:39;13.93;;;4.03;;
45033;SDS011;30771;47.988;-4.186;2024-03-17T02:33:05;10.30;;;4.00;;
45033;SDS011;30771;47.988;-4.186;2024-03-17T02:35:31;10.10;;;3.60;;
45033;SDS011;30771;47.988;-4.186;2024-03-17T02:37:56;10.90;;;3.58;;
45033;SDS011;30771;47.988;-4.186;2024-03-17T02:40:22;10.75;;;2.75;;
45033;SDS011;30771;47.988;-4.186;2024-03-17T02:42:48;9.10;;;2.75;;
45033;SDS011;30771;47.988;-4.186;2024-03-17T02:45:14;9.85;;;2.75;;
45033;SDS011;30771;47.988;-4.186;2024-03-17T02:47:40;6.18;;;2.35;;
45033;SDS011;30771;47.988;-4.186;2024-03-17T02:50:07;6.70;;;2.00;;
45033;SDS011;30771;47.988;-4.186;2024-03-17T02:52:33;5.13;;;2.15;;
45033;SDS011;30771;47.988;-4.186;2024-03-17T02:54:59;7.57;;;2.28;;
45033;SDS011;30771;47.988;-4.186;2024-03-17T02:57:25;5.85;;;2.20;;
45033;SDS011;30771;47.988;-4.186;2024-03-17T02:59:55;10.80;;;1.90;;
45033;SDS011;30771;47.988;-4.186;2024-03-17T03:02:22;3.70;;;1.77;;
45033;SDS011;30771;47.988;-4.186;2024-03-17T03:04:48;7.05;;;1.63;;
45033;SDS011;30771;47.988;-4.186;2024-03-17T03:07:14;5.65;;;1.80;;
45033;SDS011;30771;47.988;-4.186;2024-03-17T03:09:39;6.43;;;1.75;;
45033;SDS011;30771;47.988;-4.186;2024-03-17T03:12:05;5.95;;;1.73;;
45033;SDS011;30771;47.988;-4.186;2024-03-17T03:14:33;5.78;;;1.70;;
45033;SDS011;30771;47.988;-4.186;2024-03-17T03:16:59;3.47;;;1.42;;
45033;SDS011;30771;47.988;-4.186;2024-03-17T03:19:26;5.22;;;1.90;;
45033;SDS011;30771;47.988;-4.186;2024-03-17T03:21:52;5.97;;;1.85;;
45033;SDS011;30771;47.988;-4.186;2024-03-17T03:24:18;7.32;;;2.00;;
45033;SDS011;30771;47.988;-4.186;2024-03-17T03:26:44;6.05;;;1.83;;
45033;SDS011;30771;47.988;-4.186;2024-03-17T03:29:10;5.32;;;1.83;;
45033;SDS011;30771;47.988;-4.186;2024-03-17T03:31:36;6.97;;;1.70;;
45033;SDS011;30771;47.988;-4.186;2024-03-17T03:34:04;8.45;;;1.45;;
45033;SDS011;30771;47.988;-4.186;2024-03-17T03:36:33;3.70;;;1.40;;
45033;SDS011;30771;47.988;-4.186;2024-03-17T03:38:59;7.85;;;1.90;;
45033;SDS011;30771;47.988;-4.186;2024-03-17T03:41:25;17.45;;;2.65;;
45033;SDS011;30771;47.988;-4.186;2024-03-17T03:43:51;8.32;;;2.08;;
45033;SDS011;30771;47.988;-4.186;2024-03-17T03:46:17;4.80;;;2.05;;
45033;SDS011;30771;47.988;-4.186;2024-03-17T03:48:43;4.13;;;1.50;;
45033;SDS011;30771;47.988;-4.186;2024-03-17T03:51:09;4.82;;;1.55;;
45033;SDS011;30771;47.988;-4.186;2024-03-17T03:53:36;2.83;;;1.20;;
45033;SDS011;30771;47.988;-4.186;2024-03-17T03:56:03;1.88;;;1.10;;
45033;SDS011;30771;47.988;-4.186;2024-03-17T03:58:33;2.70;;;1.00;;
45033;SDS011;30771;47.988;-4.186;2024-03-17T04:01:07;3.95;;;1.08;;
45033;SDS011;30771;47.988;-4.186;2024-03-17T04:03:33;1.77;;;0.90;;
45033;SDS011;30771;47.988;-4.186;2024-03-17T04:06:07;1.77;;;0.68;;
45033;SDS011;30771;47.988;-4.186;2024-03-17T04:08:37;2.83;;;1.00;;
45033;SDS011;30771;47.988;-4.186;2024-03-17T04:11:07;2.97;;;1.40;;
45033;SDS011;30771;47.988;-4.186;2024-03-17T04:13:33;2.08;;;1.10;;
45033;SDS011;30771;47.988;-4.186;2024-03-17T04:16:00;10.43;;;1.27;;
45033;SDS011;30771;47.988;-4.186;2024-03-17T04:18:26;20.40;;;1.92;;
45033;SDS011;30771;47.988;-4.186;2024-03-17T04:20:56;19.85;;;2.28;;
45033;SDS011;30771;47.988;-4.186;2024-03-17T04:23:22;74.47;;;4.45;;
45033;SDS011;30771;47.988;-4.186;2024-03-17T04:25:50;212.25;;;8.10;;
45033;SDS011;30771;47.988;-4.186;2024-03-17T04:28:17;122.13;;;5.13;;
45033;SDS011;30771;47.988;-4.186;2024-03-17T04:30:43;302.00;;;9.80;;
45033;SDS011;30771;47.988;-4.186;2024-03-17T04:33:09;166.18;;;7.72;;
45033;SDS011;30771;47.988;-4.186;2024-03-17T04:35:37;234.27;;;8.60;;
45033;SDS011;30771;47.988;-4.186;2024-03-17T04:38:03;135.30;;;6.00;;
45033;SDS011;30771;47.988;-4.186;2024-03-17T04:40:29;208.23;;;8.02;;
45033;SDS011;30771;47.988;-4.186;2024-03-17T04:42:56;179.70;;;7.90;;
45033;SDS011;30771;47.988;-4.186;2024-03-17T04:45:21;296.08;;;9.50;;
45033;SDS011;30771;47.988;-4.186;2024-03-17T04:47:47;170.60;;;8.05;;
45033;SDS011;30771;47.988;-4.186;2024-03-17T04:50:13;297.73;;;10.93;;
45033;SDS011;30771;47.988;-4.186;2024-03-17T04:52:39;270.15;;;10.90;;
45033;SDS011;30771;47.988;-4.186;2024-03-17T04:55:04;147.25;;;9.20;;
45033;SDS011;30771;47.988;-4.186;2024-03-17T04:57:30;146.73;;;7.53;;
45033;SDS011;30771;47.988;-4.186;2024-03-17T04:59:56;240.88;;;9.52;;
45033;SDS011;30771;47.988;-4.186;2024-03-17T05:02:22;218.65;;;8.85;;
45033;SDS011;30771;47.988;-4.186;2024-03-17T05:04:49;169.02;;;8.50;;
45033;SDS011;30771;47.988;-4.186;2024-03-17T05:07:15;161.95;;;8.27;;
45033;SDS011;30771;47.988;-4.186;2024-03-17T05:09:41;174.68;;;9.32;;
45033;SDS011;30771;47.988;-4.186;2024-03-17T05:12:09;147.52;;;8.25;;
45033;SDS011;30771;47.988;-4.186;2024-03-17T05:14:35;123.65;;;7.22;;
45033;SDS011;30771;47.988;-4.186;2024-03-17T05:17:01;121.82;;;7.65;;
45033;SDS011;30771;47.988;-4.186;2024-03-17T05:19:27;129.07;;;8.52;;
45033;SDS011;30771;47.988;-4.186;2024-03-17T05:21:53;110.97;;;7.60;;
45033;SDS011;30771;47.988;-4.186;2024-03-17T05:24:18;121.03;;;7.60;;
45033;SDS011;30771;47.988;-4.186;2024-03-17T05:26:45;127.65;;;8.88;;
45033;SDS011;30771;47.988;-4.186;2024-03-17T05:29:13;64.35;;;6.80;;
45033;SDS011;30771;47.988;-4.186;2024-03-17T05:31:39;52.83;;;7.28;;
45033;SDS011;30771;47.988;-4.186;2024-03-17T05:34:08;75.45;;;7.85;;
45033;SDS011;30771;47.988;-4.186;2024-03-17T05:36:35;63.72;;;7.32;;
45033;SDS011;30771;47.988;-4.186;2024-03-17T05:39:02;73.15;;;6.50;;
45033;SDS011;30771;47.988;-4.186;2024-03-17T05:41:28;50.38;;;5.78;;
45033;SDS011;30771;47.988;-4.186;2024-03-17T05:43:54;51.90;;;6.72;;
45033;SDS011;30771;47.988;-4.186;2024-03-17T05:46:23;29.23;;;5.63;;
45033;SDS011;30771;47.988;-4.186;2024-03-17T05:48:53;50.00;;;7.22;;
45033;SDS011;30771;47.988;-4.186;2024-03-17T05:51:19;39.67;;;6.68;;
45033;SDS011;30771;47.988;-4.186;2024-03-17T05:53:45;31.17;;;6.70;;
45033;SDS011;30771;47.988;-4.186;2024-03-17T05:56:11;31.20;;;6.57;;
45033;SDS011;30771;47.988;-4.186;2024-03-17T05:58:38;31.55;;;6.07;;
45033;SDS011;30771;47.988;-4.186;2024-03-17T06:01:07;25.60;;;6.88;;
45033;SDS011;30771;47.988;-4.186;2024-03-17T06:03:33;24.42;;;6.75;;
45033;SDS011;30771;47.988;-4.186;2024-03-17T06:06:01;22.13;;;6.60;;
45033;SDS011;30771;47.988;-4.186;2024-03-17T06:08:29;24.23;;;5.72;;
45033;SDS011;30771;47.988;-4.186;2024-03-17T06:10:55;26.92;;;7.70;;
45033;SDS011;30771;47.988;-4.186;2024-03-17T06:13:23;23.17;;;6.28;;
45033;SDS011;30771;47.988;-4.186;2024-03-17T06:15:50;21.23;;;5.20;;
45033;SDS011;30771;47.988;-4.186;2024-03-17T06:18:15;18.63;;;4.78;;
45033;SDS011;30771;47.988;-4.186;2024-03-17T06:20:46;22.25;;;5.82;;
45033;SDS011;30771;47.988;-4.186;2024-03-17T06:23:13;25.40;;;5.72;;
45033;SDS011;30771;47.988;-4.186;2024-03-17T06:28:06;24.45;;;4.72;;
45033;SDS011;30771;47.988;-4.186;2024-03-17T06:30:32;25.55;;;4.68;;
45033;SDS011;30771;47.988;-4.186;2024-03-17T06:32:58;15.15;;;4.15;;
45033;SDS011;30771;47.988;-4.186;2024-03-17T06:35:24;14.70;;;4.40;;
45033;SDS011;30771;47.988;-4.186;2024-03-17T06:37:52;22.05;;;5.30;;
45033;SDS011;30771;47.988;-4.186;2024-03-17T06:40:18;23.45;;;5.60;;
45033;SDS011;30771;47.988;-4.186;2024-03-17T06:42:44;19.13;;;5.10;;
45033;SDS011;30771;47.988;-4.186;2024-03-17T06:45:10;22.90;;;5.55;;
45033;SDS011;30771;47.988;-4.186;2024-03-17T06:47:36;22.52;;;4.55;;
45033;SDS011;30771;47.988;-4.186;2024-03-17T06:50:05;21.65;;;5.10;;
45033;SDS011;30771;47.988;-4.186;2024-03-17T06:52:31;22.77;;;6.03;;
45033;SDS011;30771;47.988;-4.186;2024-03-17T06:54:57;17.55;;;4.20;;
45033;SDS011;30771;47.988;-4.186;2024-03-17T06:57:24;17.83;;;4.28;;
45033;SDS011;30771;47.988;-4.186;2024-03-17T06:59:50;17.00;;;3.92;;
45033;SDS011;30771;47.988;-4.186;2024-03-17T07:02:16;19.65;;;3.83;;
45033;SDS011;30771;47.988;-4.186;2024-03-17T07:04:44;16.13;;;3.45;;
45033;SDS011;30771;47.988;-4.186;2024-03-17T07:07:09;14.68;;;3.60;;
45033;SDS011;30771;47.988;-4.186;2024-03-17T07:09:35;13.23;;;4.28;;
45033;SDS011;30771;47.988;-4.186;2024-03-17T07:12:01;15.80;;;4.30;;
45033;SDS011;30771;47.988;-4.186;2024-03-17T07:14:27;25.17;;;5.25;;
45033;SDS011;30771;47.988;-4.186;2024-03-17T07:16:53;22.13;;;4.88;;
45033;SDS011;30771;47.988;-4.186;2024-03-17T07:19:19;33.33;;;4.75;;
45033;SDS011;30771;47.988;-4.186;2024-03-17T07:21:45;22.80;;;5.03;;
45033;SDS011;30771;47.988;-4.186;2024-03-17T07:24:10;19.90;;;5.03;;
45033;SDS011;30771;47.988;-4.186;2024-03-17T07:26:36;17.83;;;4.70;;
45033;SDS011;30771;47.988;-4.186;2024-03-17T07:29:02;12.52;;;4.30;;
45033;SDS011;30771;47.988;-4.186;2024-03-17T07:31:28;18.65;;;4.60;;
45033;SDS011;30771;47.988;-4.186;2024-03-17T07:33:54;18.15;;;3.90;;
45033;SDS011;30771;47.988;-4.186;2024-03-17T07:36:19;11.30;;;3.83;;
45033;SDS011;30771;47.988;-4.186;2024-03-17T07:38:47;14.00;;;3.83;;
45033;SDS011;30771;47.988;-4.186;2024-03-17T07:41:13;13.88;;;3.60;;
45033;SDS011;30771;47.988;-4.186;2024-03-17T07:43:38;8.73;;;3.30;;
45033;SDS011;30771;47.988;-4.186;2024-03-17T07:46:05;14.93;;;4.25;;
45033;SDS011;30771;47.988;-4.186;2024-03-17T07:48:33;11.90;;;3.30;;
45033;SDS011;30771;47.988;-4.186;2024-03-17T07:51:00;12.25;;;3.25;;
45033;SDS011;30771;47.988;-4.186;2024-03-17T07:53:30;7.30;;;2.97;;
45033;SDS011;30771;47.988;-4.186;2024-03-17T07:55:57;8.35;;;3.00;;
45033;SDS011;30771;47.988;-4.186;2024-03-17T07:58:24;6.25;;;2.97;;
45033;SDS011;30771;47.988;-4.186;2024-03-17T08:00:51;10.45;;;3.10;;
45033;SDS011;30771;47.988;-4.186;2024-03-17T08:03:27;7.25;;;2.50;;
45033;SDS011;30771;47.988;-4.186;2024-03-17T08:05:54;8.93;;;2.78;;
45033;SDS011;30771;47.988;-4.186;2024-03-17T08:08:20;6.80;;;2.47;;
45033;SDS011;30771;47.988;-4.186;2024-03-17T08:10:46;9.80;;;2.90;;
45033;SDS011;30771;47.988;-4.186;2024-03-17T08:13:15;11.50;;;2.80;;
45033;SDS011;30771;47.988;-4.186;2024-03-17T08:15:42;8.18;;;2.80;;
45033;SDS011;30771;47.988;-4.186;2024-03-17T08:18:09;7.88;;;2.75;;
45033;SDS011;30771;47.988;-4.186;2024-03-17T08:20:42;13.75;;;3.20;;
45033;SDS011;30771;47.988;-4.186;2024-03-17T08:23:09;8.25;;;3.17;;
45033;SDS011;30771;47.988;-4.186;2024-03-17T08:25:36;7.38;;;2.88;;
45033;SDS011;30771;47.988;-4.186;2024-03-17T08:28:02;8.85;;;2.90;;
45033;SDS011;30771;47.988;-4.186;2024-03-17T08:30:28;6.75;;;2.97;;
45033;SDS011;30771;47.988;-4.186;2024-03-17T08:32:57;3.80;;;2.05;;
45033;SDS011;30771;47.988;-4.186;2024-03-17T08:35:23;5.28;;;2.45;;
45033;SDS011;30771;47.988;-4.186;2024-03-17T08:37:49;3.47;;;1.85;;
45033;SDS011;30771;47.988;-4.186;2024-03-17T08:40:17;6.38;;;1.70;;
45033;SDS011;30771;47.988;-4.186;2024-03-17T08:42:43;4.50;;;1.80;;
45033;SDS011;30771;47.988;-4.186;2024-03-17T08:45:11;4.82;;;1.77;;
45033;SDS011;30771;47.988;-4.186;2024-03-17T08:47:41;4.53;;;1.63;;
45033;SDS011;30771;47.988;-4.186;2024-03-17T08:50:07;4.82;;;2.08;;
45033;SDS011;30771;47.988;-4.186;2024-03-17T08:52:34;10.13;;;2.15;;
45033;SDS011;30771;47.988;-4.186;2024-03-17T08:55:00;9.68;;;2.55;;
45033;SDS011;30771;47.988;-4.186;2024-03-17T08:59:55;13.20;;;2.30;;
45033;SDS011;30771;47.988;-4.186;2024-03-17T09:02:20;6.03;;;2.28;;
45033;SDS011;30771;47.988;-4.186;2024-03-17T09:04:49;13.02;;;2.80;;
45033;SDS011;30771;47.988;-4.186;2024-03-17T09:07:15;7.47;;;2.42;;
45033;SDS011;30771;47.988;-4.186;2024-03-17T09:09:41;8.60;;;2.80;;
45033;SDS011;30771;47.988;-4.186;2024-03-17T09:12:07;8.52;;;3.03;;
45033;SDS011;30771;47.988;-4.186;2024-03-17T09:14:34;6.68;;;3.15;;
45033;SDS011;30771;47.988;-4.186;2024-03-17T09:17:00;4.65;;;2.20;;
45033;SDS011;30771;47.988;-4.186;2024-03-17T09:19:26;5.28;;;2.85;;
45033;SDS011;30771;47.988;-4.186;2024-03-17T09:21:54;4.10;;;2.30;;
45033;SDS011;30771;47.988;-4.186;2024-03-17T09:24:20;5.45;;;2.30;;
45033;SDS011;30771;47.988;-4.186;2024-03-17T09:26:46;5.20;;;2.17;;
45033;SDS011;30771;47.988;-4.186;2024-03-17T09:29:13;3.72;;;2.20;;
45033;SDS011;30771;47.988;-4.186;2024-03-17T09:31:41;3.83;;;2.20;;
45033;SDS011;30771;47.988;-4.186;2024-03-17T09:34:10;3.95;;;1.80;;
45033;SDS011;30771;47.988;-4.186;2024-03-17T09:39:01;3.22;;;1.98;;
45033;SDS011;30771;47.988;-4.186;2024-03-17T09:41:29;3.03;;;2.00;;
45033;SDS011;30771;47.988;-4.186;2024-03-17T09:43:56;5.07;;;2.10;;
45033;SDS011;30771;47.988;-4.186;2024-03-17T09:46:26;3.33;;;1.75;;
45033;SDS011;30771;47.988;-4.186;2024-03-17T09:48:54;2.92;;;1.92;;
45033;SDS011;30771;47.988;-4.186;2024-03-17T09:51:26;3.90;;;1.95;;
45033;SDS011;30771;47.988;-4.186;2024-03-17T09:53:52;3.25;;;1.85;;
45033;SDS011;30771;47.988;-4.186;2024-03-17T09:56:21;4.57;;;2.10;;
45033;SDS011;30771;47.988;-4.186;2024-03-17T09:58:47;4.63;;;2.38;;
45033;SDS011;30771;47.988;-4.186;2024-03-17T10:01:15;5.33;;;2.80;;
45033;SDS011;30771;47.988;-4.186;2024-03-17T10:06:30;5.60;;;2.80;;
45033;SDS011;30771;47.988;-4.186;2024-03-17T10:08:57;8.13;;;2.90;;
45033;SDS011;30771;47.988;-4.186;2024-03-17T10:11:24;11.13;;;3.00;;
45033;SDS011;30771;47.988;-4.186;2024-03-17T10:14:01;18.52;;;4.18;;
45033;SDS011;30771;47.988;-4.186;2024-03-17T10:16:37;10.80;;;4.35;;
45033;SDS011;30771;47.988;-4.186;2024-03-17T10:21:40;13.95;;;4.78;;
45033;SDS011;30771;47.988;-4.186;2024-03-17T10:24:08;11.98;;;4.85;;
45033;SDS011;30771;47.988;-4.186;2024-03-17T10:26:47;7.18;;;3.88;;
45033;SDS011;30771;47.988;-4.186;2024-03-17T10:29:17;7.50;;;3.95;;
45033;SDS011;30771;47.988;-4.186;2024-03-17T10:31:44;9.23;;;3.92;;
45033;SDS011;30771;47.988;-4.186;2024-03-17T10:34:14;8.77;;;3.90;;
45033;SDS011;30771;47.988;-4.186;2024-03-17T10:36:46;8.23;;;4.07;;
45033;SDS011;30771;47.988;-4.186;2024-03-17T10:41:56;7.68;;;3.58;;
45033;SDS011;30771;47.988;-4.186;2024-03-17T10:44:25;5.90;;;3.50;;
45033;SDS011;30771;47.988;-4.186;2024-03-17T10:46:52;10.20;;;4.10;;
45033;SDS011;30771;47.988;-4.186;2024-03-17T10:49:19;6.07;;;3.13;;
45033;SDS011;30771;47.988;-4.186;2024-03-17T10:51:46;6.97;;;3.40;;
45033;SDS011;30771;47.988;-4.186;2024-03-17T10:54:18;7.90;;;3.50;;
45033;SDS011;30771;47.988;-4.186;2024-03-17T10:56:49;11.35;;;3.75;;
45033;SDS011;30771;47.988;-4.186;2024-03-17T10:59:15;10.75;;;4.50;;
45033;SDS011;30771;47.988;-4.186;2024-03-17T11:01:43;9.98;;;4.65;;
45033;SDS011;30771;47.988;-4.186;2024-03-17T11:04:10;11.82;;;3.58;;
45033;SDS011;30771;47.988;-4.186;2024-03-17T11:06:39;10.60;;;3.97;;
45033;SDS011;30771;47.988;-4.186;2024-03-17T11:09:06;9.38;;;3.78;;
45033;SDS011;30771;47.988;-4.186;2024-03-17T11:11:40;9.32;;;2.38;;
45033;SDS011;30771;47.988;-4.186;2024-03-17T11:14:17;5.85;;;2.22;;
45033;SDS011;30771;47.988;-4.186;2024-03-17T11:16:45;4.78;;;1.77;;
45033;SDS011;30771;47.988;-4.186;2024-03-17T11:19:15;5.77;;;2.00;;
45033;SDS011;30771;47.988;-4.186;2024-03-17T11:21:43;8.02;;;2.42;;
45033;SDS011;30771;47.988;-4.186;2024-03-17T11:24:21;9.23;;;2.17;;
45033;SDS011;30771;47.988;-4.186;2024-03-17T11:26:47;6.00;;;1.85;;
45033;SDS011;30771;47.988;-4.186;2024-03-17T11:29:28;7.53;;;1.60;;
45033;SDS011;30771;47.988;-4.186;2024-03-17T11:31:55;5.07;;;1.52;;
45033;SDS011;30771;47.988;-4.186;2024-03-17T11:34:30;6.10;;;1.75;;
45033;SDS011;30771;47.988;-4.186;2024-03-17T11:36:58;7.32;;;1.80;;
45033;SDS011;30771;47.988;-4.186;2024-03-17T11:42:23;6.40;;;1.70;;
45033;SDS011;30771;47.988;-4.186;2024-03-17T11:45:09;8.98;;;1.90;;
45033;SDS011;30771;47.988;-4.186;2024-03-17T11:47:41;7.50;;;1.17;;
45033;SDS011;30771;47.988;-4.186;2024-03-17T11:50:09;5.13;;;1.45;;
45033;SDS011;30771;47.988;-4.186;2024-03-17T11:52:36;4.97;;;0.90;;
45033;SDS011;30771;47.988;-4.186;2024-03-17T11:55:03;4.38;;;1.17;;
45033;SDS011;30771;47.988;-4.186;2024-03-17T11:57:29;7.68;;;1.38;;
45033;SDS011;30771;47.988;-4.186;2024-03-17T11:59:55;7.18;;;1.60;;
45033;SDS011;30771;47.988;-4.186;2024-03-17T12:02:23;10.57;;;1.98;;
45033;SDS011;30771;47.988;-4.186;2024-03-17T12:04:52;7.63;;;2.28;;
45033;SDS011;30771;47.988;-4.186;2024-03-17T12:07:19;6.47;;;1.35;;
45033;SDS011;30771;47.988;-4.186;2024-03-17T12:09:49;6.18;;;1.30;;
45033;SDS011;30771;47.988;-4.186;2024-03-17T12:12:17;11.25;;;2.25;;
45033;SDS011;30771;47.988;-4.186;2024-03-17T12:14:44;5.20;;;1.70;;
45033;SDS011;30771;47.988;-4.186;2024-03-17T12:17:12;9.95;;;2.17;;
45033;SDS011;30771;47.988;-4.186;2024-03-17T12:19:44;10.55;;;1.77;;
45033;SDS011;30771;47.988;-4.186;2024-03-17T12:22:14;9.95;;;1.83;;
45033;SDS011;30771;47.988;-4.186;2024-03-17T12:24:43;9.63;;;1.90;;
45033;SDS011;30771;47.988;-4.186;2024-03-17T12:27:10;10.50;;;2.37;;
45033;SDS011;30771;47.988;-4.186;2024-03-17T12:29:43;11.52;;;2.95;;
45033;SDS011;30771;47.988;-4.186;2024-03-17T12:34:36;13.70;;;2.60;;
45033;SDS011;30771;47.988;-4.186;2024-03-17T12:37:03;8.02;;;2.35;;
45033;SDS011;30771;47.988;-4.186;2024-03-17T12:39:30;11.35;;;1.98;;
45033;SDS011;30771;47.988;-4.186;2024-03-17T12:44:34;10.32;;;2.25;;
45033;SDS011;30771;47.988;-4.186;2024-03-17T12:47:03;6.63;;;1.80;;
45033;SDS011;30771;47.988;-4.186;2024-03-17T12:49:30;11.38;;;2.00;;
45033;SDS011;30771;47.988;-4.186;2024-03-17T12:51:58;11.23;;;1.90;;
45033;SDS011;30771;47.988;-4.186;2024-03-17T12:54:25;10.00;;;2.20;;
45033;SDS011;30771;47.988;-4.186;2024-03-17T12:57:03;10.57;;;2.08;;
45033;SDS011;30771;47.988;-4.186;2024-03-17T12:59:48;13.55;;;2.08;;
45033;SDS011;30771;47.988;-4.186;2024-03-17T13:02:41;9.32;;;1.85;;
45033;SDS011;30771;47.988;-4.186;2024-03-17T13:07:38;13.50;;;2.28;;
45033;SDS011;30771;47.988;-4.186;2024-03-17T13:10:04;10.80;;;2.20;;
45033;SDS011;30771;47.988;-4.186;2024-03-17T13:12:33;11.25;;;2.33;;
45033;SDS011;30771;47.988;-4.186;2024-03-17T13:15:00;12.70;;;2.17;;
45033;SDS011;30771;47.988;-4.186;2024-03-17T13:17:26;12.13;;;2.03;;
45033;SDS011;30771;47.988;-4.186;2024-03-17T13:19:54;8.77;;;1.80;;
45033;SDS011;30771;47.988;-4.186;2024-03-17T13:22:20;10.90;;;2.30;;
45033;SDS011;30771;47.988;-4.186;2024-03-17T13:24:46;9.57;;;2.10;;
45033;SDS011;30771;47.988;-4.186;2024-03-17T13:27:12;10.80;;;2.13;;
45033;SDS011;30771;47.988;-4.186;2024-03-17T13:29:40;9.50;;;2.22;;
45033;SDS011;30771;47.988;-4.186;2024-03-17T13:32:09;16.70;;;2.67;;
45033;SDS011;30771;47.988;-4.186;2024-03-17T13:34:35;14.30;;;2.67;;
45033;SDS011;30771;47.988;-4.186;2024-03-17T13:37:01;16.65;;;2.28;;
45033;SDS011;30771;47.988;-4.186;2024-03-17T13:39:29;11.87;;;2.50;;
45033;SDS011;30771;47.988;-4.186;2024-03-17T13:41:57;12.65;;;2.30;;
45033;SDS011;30771;47.988;-4.186;2024-03-17T13:44:32;12.88;;;2.28;;
45033;SDS011;30771;47.988;-4.186;2024-03-17T13:46:58;11.40;;;2.17;;
45033;SDS011;30771;47.988;-4.186;2024-03-17T13:49:26;11.07;;;2.20;;
45033;SDS011;30771;47.988;-4.186;2024-03-17T13:51:54;15.25;;;2.67;;
45033;SDS011;30771;47.988;-4.186;2024-03-17T13:54:20;12.95;;;2.13;;
45033;SDS011;30771;47.988;-4.186;2024-03-17T13:56:47;24.27;;;3.38;;
45033;SDS011;30771;47.988;-4.186;2024-03-17T13:59:14;17.13;;;2.50;;
45033;SDS011;30771;47.988;-4.186;2024-03-17T14:01:43;16.92;;;2.95;;
45033;SDS011;30771;47.988;-4.186;2024-03-17T14:04:15;16.98;;;3.35;;
45033;SDS011;30771;47.988;-4.186;2024-03-17T14:06:46;20.52;;;3.38;;
45033;SDS011;30771;47.988;-4.186;2024-03-17T14:09:14;16.92;;;2.78;;
45033;SDS011;30771;47.988;-4.186;2024-03-17T14:11:43;22.52;;;3.58;;
45033;SDS011;30771;47.988;-4.186;2024-03-17T14:14:10;15.43;;;2.83;;
45033;SDS011;30771;47.988;-4.186;2024-03-17T14:16:36;20.55;;;3.70;;
45033;SDS011;30771;47.988;-4.186;2024-03-17T14:19:02;14.85;;;2.60;;
45033;SDS011;30771;47.988;-4.186;2024-03-17T14:21:28;18.45;;;3.38;;
45033;SDS011;30771;47.988;-4.186;2024-03-17T14:23:55;15.48;;;3.42;;
45033;SDS011;30771;47.988;-4.186;2024-03-17T14:26:21;19.35;;;3.53;;
45033;SDS011;30771;47.988;-4.186;2024-03-17T14:28:48;19.38;;;3.22;;
45033;SDS011;30771;47.988;-4.186;2024-03-17T14:31:16;23.52;;;3.88;;
45033;SDS011;30771;47.988;-4.186;2024-03-17T14:33:43;22.00;;;4.22;;
45033;SDS011;30771;47.988;-4.186;2024-03-17T14:36:09;21.80;;;3.85;;
45033;SDS011;30771;47.988;-4.186;2024-03-17T14:38:35;21.35;;;3.80;;
45033;SDS011;30771;47.988;-4.186;2024-03-17T14:41:01;18.23;;;3.95;;
45033;SDS011;30771;47.988;-4.186;2024-03-17T14:43:30;24.33;;;3.30;;
45033;SDS011;30771;47.988;-4.186;2024-03-17T14:45:56;31.88;;;4.10;;
45033;SDS011;30771;47.988;-4.186;2024-03-17T14:48:22;18.58;;;3.40;;
45033;SDS011;30771;47.988;-4.186;2024-03-17T14:50:49;24.75;;;3.97;;
45033;SDS011;30771;47.988;-4.186;2024-03-17T14:53:14;19.20;;;3.47;;